Sawyer International Airport
KSAW : now visible

Airfield :











YOU CAN JOIN US ON...

 
LOGIN :

Register | Disclaimer

   EN    FR    IT 

 









Legend :    VFR   Marginal VFR   IFR   Intensive IFR   Very Intensive IFR
Visi :
Ceiling :
>= 8 km
>= 3000ft
5 to 8 km
1000 to 3000 ft
1500m to 5 km
500 to 1000 ft
800 to 1500m
200 to 500 ft
< 800m
< 200 ft
Symbols :   Thunderstorms  Fog  Heavy snow  Heavy precipitations  Wind > 20 kt






- Airport Elevation : 1221 ft


KSAW - Sawyer International

CURRENT METAR :
  • 251846Z 22015KT 10SM OVC015 19/16 A2982

EXPIRED METARs :
  • 251746Z 19012G15KT 10SM OVC009 18/16 A2985
  • 251715Z 20012KT 10SM OVC009 17/15 A2986
  • 251645Z 21011KT 10SM OVC013 17/15 A2986

TAF KSAW
Valid from the 25 at 18:00 until the 26 at 18:00 UTC


251738Z 2518/2618 20011KT P6SM OVC007
FM252000 20012G21KT P6SM SCT150
FM260200 19013G20KT P6SM VCTS SCT040CB BKN180 WS018/21045KT
FM260700 22007KT P6SM BKN035
FM261000 VRB04KT 5SM BR BKN021
FM261300 VRB04KT P6SM SCT025 BKN150
KZMP FIR / North America



MET'MAP, your aeronautical weather chart ! - Copyright ORBIFLY December 2007 - Disclaimer

ORBIFLY MET'MAP TEAM :

Programming & Development : Alexandra Zaïnal
Concept & original design : Baudouin d'Aumeries
Assistance for programming : Marc-Olivier Méhu
Technical & hardware support : Manuel Goepfert

Contact : metmap@orbifly.com




SOURCES & CREDITS :

   NOAA       Earth
Advisory